Arapahoe, NE

8:26 PM CDT on September 15, 2014 (GMT -0500)
Brewster | Change Station
CLOSE
Current Station
Airport
Location: Holdrege,
Elevation: 2310 ft
Nearby Weather Stations

Elev 2310 ft 40.45 °N, 99.34 °W | Updated 11 minutes ago

Clear
Clear
55 °F
Feels Like 55 °F
N
0
Wind Variable Wind from North

Today
High -- | Low -- °F
--% Chance of Precip.
Yesterday
High -- | Low -- °F
Precip. -- in
7:20 AM 7:48 PM
Waning Gibbous, 50% visible
Pressure 30.24 in
Visibility 7.0 miles
Clouds Clear
Dew Point 44 °F
Humidity 67%
Rainfall 0.00 in
Snow Depth Not available.
UV 0 out of 12
Pollen 5.10 out of 12
Air Quality Not available.
Flu Activity Not available.
METAR KHDE 160115Z AUTO 00000KT 7SM CLR 13/07 A3024 RMK AO2 T01260066

More Conditions Fewer Conditions

Pressure 30.24 in
Visibility 7.0 miles
Clouds Clear
Dew Point 44 °F
Humidity 67%
Rainfall 0.00 in
Snow Depth Not available.
UV 0 out of 12
Pollen 5.10 out of 12
Air Quality Not available.
Flu Activity Not available.
METAR KHDE 160115Z AUTO 00000KT 7SM CLR 13/07 A3024 RMK AO2 T01260066

More Conditions Fewer Conditions

10-Day Weather Forecast

Almanac

Astronomy

Sep. 15, 2014 Rise Set
Actual Time 7:20 AM CDT 7:48 PM CDT
Civil Twilight 6:53 AM CDT 8:15 PM CDT
Nautical Twilight 6:20 AM CDT 8:47 PM CDT
Astronomical Twilight 5:47 AM CDT 9:20 PM CDT
Moon No Moon Rise 2:22 PM CDT (9/15)
Length of Visible Light 13h 22m
Length of Day
12h 27m
Tomorrow will be 2m 37s shorter.
Waning Gibbous, 50% of the Moon is Illuminated
Today
Waning Gibbous
Sep 15
Last Quarter
Sep 24
New
Oct 1
First Quarter
Oct 8
Full

Today's Extremes

State Highs State Lows

Community

WunderPhotos

Upload Photos

1,753,645 photos uploaded!

WunderBlogs® & News

Nearby

Snow Depth

Station Depth Elevation
No new snow has been reported.

Earthquake Activity

City Distance Mag. Time & Date
No recent earthquake activity has been reported nearby.
Minimum magnitude displayed is 2.5.

Coastal Water Temperatures

Place Temperature
No Stations Reporting

Nearby Weather Stations